Time;durP1;ratioP1;P1;durP2;ratioP2;P2;SDS_P1;SDS_P2;PMS_P1;PMS_P2;Temp;Humidity;BMP_temperature;BMP_pressure;BME280_temperature;BME280_humidity;BME280_pressure;Samples;Min_cycle;Max_cycle;Signal;HPM_P1;HPM_P2
2021/03/01 00:01:52;;;;;;;24.53;12.07;;;0.80;92.70;;;;;;5030251;28;20208;-60
2021/03/01 00:04:17;;;;;;;19.67;9.63;;;0.70;92.50;;;;;;5012150;28;20209;-60
2021/03/01 00:06:43;;;;;;;20.00;9.30;;;0.70;92.60;;;;;;5013747;28;20193;-59
2021/03/01 00:09:08;;;;;;;22.53;10.23;;;0.70;92.70;;;;;;5032878;28;20209;-62
2021/03/01 00:11:34;;;;;;;22.23;10.20;;;0.70;92.80;;;;;;5032464;28;20233;-59
2021/03/01 00:14:00;;;;;;;22.60;11.57;;;0.60;92.80;;;;;;5029352;28;20174;-60
2021/03/01 00:16:26;;;;;;;19.00;9.37;;;0.60;92.90;;;;;;5024326;28;20257;-59
2021/03/01 00:18:52;;;;;;;22.07;11.30;;;0.60;92.90;;;;;;5027401;28;20886;-59
2021/03/01 00:21:20;;;;;;;23.60;10.63;;;0.60;93.00;;;;;;5031313;28;20457;-59
2021/03/01 00:23:49;;;;;;;20.50;10.23;;;0.60;93.00;;;;;;5030370;28;20272;-59
2021/03/01 00:26:15;;;;;;;20.87;10.40;;;0.50;92.90;;;;;;5029331;28;20520;-60
2021/03/01 00:28:44;;;;;;;21.00;9.87;;;0.50;92.90;;;;;;5024132;28;20446;-60
2021/03/01 00:31:09;;;;;;;21.37;10.90;;;0.50;92.90;;;;;;5017681;28;20561;-60
2021/03/01 00:33:35;;;;;;;23.47;10.43;;;0.50;93.20;;;;;;5028663;28;20522;-60
2021/03/01 00:36:00;;;;;;;20.43;10.23;;;0.40;93.20;;;;;;5027709;28;20663;-60
2021/03/01 00:38:27;;;;;;;18.20;10.00;;;0.50;93.30;;;;;;5022253;28;20200;-60
2021/03/01 00:40:53;;;;;;;19.60;10.20;;;0.40;93.00;;;;;;5031504;28;20960;-59
2021/03/01 00:43:19;;;;;;;18.07;9.80;;;0.40;92.90;;;;;;5022304;28;20501;-60
2021/03/01 00:45:45;;;;;;;24.40;10.60;;;0.30;92.90;;;;;;5021541;28;20488;-59
2021/03/01 00:48:11;;;;;;;23.97;11.30;;;0.30;93.20;;;;;;5010843;28;20452;-59
2021/03/01 00:50:36;;;;;;;20.20;10.33;;;0.20;93.40;;;;;;4997484;28;20593;-60
2021/03/01 00:53:03;;;;;;;20.20;9.83;;;0.20;93.60;;;;;;5038208;28;20209;-59
2021/03/01 00:55:29;;;;;;;20.13;9.60;;;0.20;93.90;;;;;;5006982;28;20188;-62
2021/03/01 00:57:54;;;;;;;23.83;10.37;;;0.10;94.20;;;;;;5024854;28;20978;-59
2021/03/01 01:00:20;;;;;;;25.77;11.13;;;0.10;94.60;;;;;;5001648;28;20193;-59
2021/03/01 01:02:46;;;;;;;21.77;10.47;;;0.10;94.70;;;;;;5004368;28;20208;-59
2021/03/01 01:05:13;;;;;;;21.43;10.33;;;0.10;94.60;;;;;;5022723;28;20458;-61
2021/03/01 01:07:38;;;;;;;23.03;10.80;;;0.10;94.50;;;;;;5004953;28;20228;-60
2021/03/01 01:10:06;;;;;;;29.50;10.70;;;0.00;94.50;;;;;;5000462;28;20424;-61
2021/03/01 01:12:34;;;;;;;22.30;10.80;;;0.00;94.60;;;;;;5031648;28;20815;-59
2021/03/01 01:15:00;;;;;;;23.13;9.80;;;0.00;94.70;;;;;;5012247;28;20429;-59
2021/03/01 01:17:26;;;;;;;16.03;8.97;;;0.00;94.70;;;;;;5020181;28;20436;-59
2021/03/01 01:19:51;;;;;;;17.53;8.87;;;0.00;94.60;;;;;;5013349;28;20537;-59
2021/03/01 01:22:17;;;;;;;18.30;8.70;;;-0.10;94.70;;;;;;5014508;28;20979;-59
2021/03/01 01:24:43;;;;;;;17.60;9.20;;;0.00;94.60;;;;;;5010719;28;20204;-58
2021/03/01 01:27:09;;;;;;;20.23;9.57;;;-0.10;94.60;;;;;;5011072;28;20755;-59
2021/03/01 01:29:34;;;;;;;18.40;10.07;;;-0.10;94.90;;;;;;4990249;28;20854;-60
2021/03/01 01:32:00;;;;;;;18.33;9.27;;;-0.10;95.10;;;;;;5028658;28;20206;-60
2021/03/01 01:34:26;;;;;;;22.67;9.27;;;-0.10;95.00;;;;;;5008585;28;20227;-61
2021/03/01 01:36:52;;;;;;;17.03;8.73;;;-0.10;95.00;;;;;;5007643;28;20465;-60
2021/03/01 01:39:17;;;;;;;18.60;8.40;;;-0.10;94.90;;;;;;5015219;28;20277;-59
2021/03/01 01:41:43;;;;;;;20.30;9.37;;;-0.10;94.70;;;;;;4994569;28;20832;-59
2021/03/01 01:44:09;;;;;;;16.97;8.37;;;-0.20;94.80;;;;;;5026478;28;20383;-61
2021/03/01 01:46:35;;;;;;;19.37;9.30;;;-0.20;95.20;;;;;;5034528;28;20679;-60
2021/03/01 01:49:00;;;;;;;20.40;9.97;;;-0.20;95.30;;;;;;5019772;28;20190;-59
2021/03/01 01:51:26;;;;;;;16.93;9.00;;;-0.10;95.40;;;;;;5031599;28;20483;-61
2021/03/01 01:53:52;;;;;;;17.43;8.03;;;-0.10;95.40;;;;;;5021466;28;20180;-59
2021/03/01 01:56:17;;;;;;;17.70;9.23;;;-0.10;95.20;;;;;;5003084;28;20181;-59
2021/03/01 01:58:43;;;;;;;19.47;9.23;;;-0.10;95.00;;;;;;5001562;28;20212;-60
2021/03/01 02:01:09;;;;;;;17.90;9.80;;;-0.10;94.70;;;;;;5029763;28;20691;-59
2021/03/01 02:03:44;;;;;;;19.13;9.27;;;-0.20;94.50;;;;;;5022137;28;20424;-60
2021/03/01 02:06:47;;;;;;;21.40;9.87;;;-0.20;94.60;;;;;;5010472;28;20196;-60
2021/03/01 02:09:24;;;;;;;21.27;10.07;;;-0.30;94.40;;;;;;4998452;28;21085;-62
2021/03/01 02:12:12;;;;;;;18.33;9.80;;;-0.30;94.50;;;;;;5019040;28;20525;-59
2021/03/01 02:14:55;;;;;;;17.43;8.80;;;-0.30;94.40;;;;;;5001300;28;20448;-60
2021/03/01 02:17:21;;;;;;;20.83;9.10;;;-0.30;94.30;;;;;;5017136;28;20434;-61
2021/03/01 02:19:47;;;;;;;16.33;8.23;;;-0.40;94.20;;;;;;5013443;28;20477;-59
2021/03/01 02:22:12;;;;;;;22.10;8.50;;;-0.40;94.30;;;;;;5008987;28;21376;-59
2021/03/01 02:24:42;;;;;;;18.40;9.30;;;-0.50;94.40;;;;;;5008909;28;20198;-60
2021/03/01 02:27:16;;;;;;;21.10;11.03;;;-0.50;94.80;;;;;;5040115;28;20196;-59
2021/03/01 02:29:43;;;;;;;19.93;8.80;;;-0.50;94.60;;;;;;5013246;28;20489;-60
2021/03/01 02:32:09;;;;;;;23.20;11.13;;;-0.50;94.50;;;;;;5031343;28;20471;-61
2021/03/01 02:34:38;;;;;;;19.07;9.50;;;-0.60;94.60;;;;;;5020334;28;20451;-59
2021/03/01 02:37:11;;;;;;;17.33;8.60;;;-0.60;94.80;;;;;;5027485;28;20435;-58
2021/03/01 02:39:42;;;;;;;21.17;10.43;;;-0.60;94.80;;;;;;5028458;28;20442;-61
2021/03/01 02:42:10;;;;;;;18.13;8.67;;;-0.60;94.90;;;;;;5044134;28;20534;-60
2021/03/01 02:44:39;;;;;;;19.20;10.20;;;-0.60;94.80;;;;;;5028098;28;21012;-59
2021/03/01 02:47:05;;;;;;;17.50;9.23;;;-0.60;94.60;;;;;;5043873;28;20479;-60
2021/03/01 02:49:33;;;;;;;18.33;9.20;;;-0.60;94.50;;;;;;5021506;28;20435;-59
2021/03/01 02:52:00;;;;;;;16.60;9.07;;;-0.70;94.40;;;;;;5034925;28;20206;-61
2021/03/01 02:54:28;;;;;;;20.77;9.53;;;-0.70;94.20;;;;;;5020327;28;21403;-60
2021/03/01 02:56:56;;;;;;;18.60;9.37;;;-0.70;94.40;;;;;;5025885;28;20424;-59
2021/03/01 02:59:23;;;;;;;17.83;8.60;;;-0.70;94.50;;;;;;5017890;28;20841;-60
2021/03/01 03:01:50;;;;;;;16.43;8.90;;;-0.80;94.60;;;;;;5030262;28;20494;-59
2021/03/01 03:04:17;;;;;;;16.37;8.03;;;-0.80;94.60;;;;;;5033628;28;20452;-59
2021/03/01 03:06:44;;;;;;;24.60;9.50;;;-0.80;94.50;;;;;;5003841;28;20442;-59
2021/03/01 03:09:12;;;;;;;25.43;9.40;;;-0.80;94.40;;;;;;5027876;28;20437;-60
2021/03/01 03:11:41;;;;;;;21.93;9.90;;;-0.80;94.60;;;;;;5009968;28;20481;-59
2021/03/01 03:14:16;;;;;;;21.93;9.70;;;-0.90;94.50;;;;;;5032064;28;20428;-58
2021/03/01 03:16:42;;;;;;;21.40;10.33;;;-0.90;94.80;;;;;;5028012;28;20433;-59
2021/03/01 03:19:09;;;;;;;17.73;8.87;;;-0.90;94.90;;;;;;5023359;28;20814;-60
2021/03/01 03:21:35;;;;;;;18.80;8.63;;;-1.00;95.00;;;;;;5013279;28;20212;-59
2021/03/01 03:24:04;;;;;;;23.53;9.10;;;-1.00;95.00;;;;;;5031671;28;20932;-59
2021/03/01 03:26:30;;;;;;;16.67;8.93;;;-1.00;95.20;;;;;;5021756;28;20565;-59
2021/03/01 03:28:55;;;;;;;16.47;8.30;;;-1.00;95.40;;;;;;5008780;28;20437;-59
2021/03/01 03:31:21;;;;;;;18.47;9.43;;;-1.10;95.60;;;;;;5025810;28;20209;-59
2021/03/01 03:33:47;;;;;;;19.90;8.70;;;-1.00;95.40;;;;;;5029908;28;20177;-59
2021/03/01 03:36:13;;;;;;;16.97;8.67;;;-1.10;95.50;;;;;;5050377;28;20194;-59
2021/03/01 03:38:46;;;;;;;16.73;8.17;;;-1.10;95.60;;;;;;5022199;28;20663;-59
2021/03/01 03:41:14;;;;;;;16.50;8.60;;;-1.10;95.70;;;;;;5025008;28;20541;-58
2021/03/01 03:43:43;;;;;;;21.43;9.23;;;-1.20;95.80;;;;;;5031337;28;20447;-59
2021/03/01 03:46:11;;;;;;;19.33;9.57;;;-1.20;96.10;;;;;;5015533;28;20417;-59
2021/03/01 03:48:38;;;;;;;16.43;8.30;;;-1.20;96.30;;;;;;5028580;28;20496;-60
2021/03/01 03:51:08;;;;;;;20.13;9.07;;;-1.20;96.50;;;;;;5038933;28;20507;-59
2021/03/01 03:53:48;;;;;;;20.57;9.27;;;-1.20;96.40;;;;;;5031943;28;20419;-59
2021/03/01 03:56:16;;;;;;;18.20;9.33;;;-1.20;96.30;;;;;;5034336;28;20907;-59
2021/03/01 03:58:48;;;;;;;20.10;9.27;;;-1.20;96.00;;;;;;5028501;28;20776;-60
2021/03/01 04:01:16;;;;;;;19.67;8.97;;;-1.20;96.10;;;;;;5032626;28;20449;-60
2021/03/01 04:03:45;;;;;;;20.50;8.83;;;-1.20;96.10;;;;;;5030803;28;20502;-59
2021/03/01 04:06:17;;;;;;;20.53;8.80;;;-1.30;96.10;;;;;;5031083;28;20427;-60
2021/03/01 04:08:46;;;;;;;20.57;8.57;;;-1.30;96.00;;;;;;5029502;28;20432;-59
2021/03/01 04:11:14;;;;;;;19.00;9.20;;;-1.30;96.20;;;;;;5032391;28;20837;-59
2021/03/01 04:13:47;;;;;;;24.23;8.67;;;-1.30;96.30;;;;;;5031946;28;20417;-59
2021/03/01 04:16:15;;;;;;;13.87;7.50;;;-1.40;96.20;;;;;;5014579;28;20412;-60
2021/03/01 04:18:43;;;;;;;18.80;7.70;;;-1.40;96.00;;;;;;5045987;28;20760;-59
2021/03/01 04:21:11;;;;;;;19.73;8.70;;;-1.40;96.10;;;;;;5034645;28;20448;-59
2021/03/01 04:23:38;;;;;;;19.93;8.30;;;-1.40;96.00;;;;;;5028993;28;20394;-59
2021/03/01 04:26:05;;;;;;;15.97;8.67;;;-1.40;95.70;;;;;;4989787;28;20464;-59
2021/03/01 04:28:32;;;;;;;19.33;8.73;;;-1.50;95.50;;;;;;5030802;28;21011;-59
2021/03/01 04:31:03;;;;;;;16.43;7.87;;;-1.50;95.40;;;;;;5032365;28;20450;-59
2021/03/01 04:33:31;;;;;;;16.43;8.47;;;-1.50;95.50;;;;;;5032702;28;20661;-59
2021/03/01 04:35:58;;;;;;;22.90;9.43;;;-1.50;95.50;;;;;;5011632;28;20406;-60
2021/03/01 04:38:24;;;;;;;20.57;9.10;;;-1.50;95.60;;;;;;5006484;28;20398;-60
2021/03/01 04:40:51;;;;;;;20.93;9.20;;;-1.60;95.60;;;;;;5033411;28;20411;-59
2021/03/01 04:43:20;;;;;;;16.93;8.80;;;-1.60;95.60;;;;;;5022009;28;20203;-59
2021/03/01 04:45:49;;;;;;;21.63;8.53;;;-1.60;95.70;;;;;;5024210;28;21114;-60
2021/03/01 04:48:16;;;;;;;15.40;8.67;;;-1.60;95.70;;;;;;5030041;28;20399;-60
2021/03/01 04:50:45;;;;;;;15.80;8.23;;;-1.60;95.70;;;;;;5030496;28;20815;-60
2021/03/01 04:53:11;;;;;;;17.90;8.97;;;-1.60;95.70;;;;;;5000196;28;20683;-60
2021/03/01 04:55:39;;;;;;;21.70;8.20;;;-1.70;95.80;;;;;;5032951;28;20751;-60
2021/03/01 04:58:05;;;;;;;17.20;8.93;;;-1.70;95.90;;;;;;5031317;28;20417;-60
2021/03/01 05:00:34;;;;;;;22.20;9.20;;;-1.70;95.80;;;;;;5009366;28;20440;-60
2021/03/01 05:03:03;;;;;;;21.80;9.47;;;-1.70;95.90;;;;;;5027946;28;20437;-59
2021/03/01 05:05:29;;;;;;;19.23;8.57;;;-1.70;95.90;;;;;;5024819;28;20427;-59
2021/03/01 05:07:58;;;;;;;19.63;8.97;;;-1.80;95.90;;;;;;5029458;28;21026;-59
2021/03/01 05:10:26;;;;;;;19.57;9.10;;;-1.80;96.00;;;;;;5021821;28;20466;-60
2021/03/01 05:12:52;;;;;;;21.70;9.20;;;-1.80;96.00;;;;;;5013346;28;20459;-59
2021/03/01 05:15:18;;;;;;;20.90;10.10;;;-1.80;96.10;;;;;;5020648;28;20452;-60
2021/03/01 05:17:45;;;;;;;20.43;9.80;;;-1.90;96.20;;;;;;5019897;28;20404;-59
2021/03/01 05:20:12;;;;;;;23.70;9.33;;;-1.90;96.30;;;;;;5031331;28;20684;-58
2021/03/01 05:22:38;;;;;;;16.43;8.07;;;-1.90;96.50;;;;;;5024219;28;20472;-59
2021/03/01 05:25:04;;;;;;;14.40;8.30;;;-1.90;96.70;;;;;;5026163;28;20441;-61
2021/03/01 05:27:32;;;;;;;19.67;9.70;;;-1.90;96.80;;;;;;5043941;28;20193;-60
2021/03/01 05:29:58;;;;;;;23.20;14.20;;;-1.90;97.00;;;;;;5007061;28;20820;-60
2021/03/01 05:32:24;;;;;;;23.00;10.37;;;-1.90;96.90;;;;;;5020616;28;21184;-60
2021/03/01 05:34:50;;;;;;;21.57;9.37;;;-1.90;96.90;;;;;;5021108;28;20423;-60
2021/03/01 05:37:15;;;;;;;15.50;7.60;;;-1.90;96.90;;;;;;5007930;28;20280;-60
2021/03/01 05:39:42;;;;;;;19.77;9.20;;;-1.90;96.90;;;;;;5028451;28;20968;-60
2021/03/01 05:42:11;;;;;;;20.73;8.97;;;-1.90;96.90;;;;;;5012756;28;20208;-60
2021/03/01 05:44:38;;;;;;;23.53;9.23;;;-1.90;96.90;;;;;;5021020;28;20414;-60
2021/03/01 05:47:05;;;;;;;22.33;8.90;;;-1.90;96.90;;;;;;5035907;28;21031;-60
2021/03/01 05:49:32;;;;;;;24.10;9.40;;;-1.90;97.10;;;;;;5024347;28;20803;-60
2021/03/01 05:51:59;;;;;;;17.00;8.60;;;-2.00;97.10;;;;;;5024065;28;20468;-60
2021/03/01 05:54:29;;;;;;;19.27;9.60;;;-2.00;97.30;;;;;;5027879;28;20810;-60
2021/03/01 05:56:55;;;;;;;18.13;8.93;;;-2.00;97.50;;;;;;5022976;28;20430;-61
2021/03/01 05:59:20;;;;;;;26.87;11.07;;;-1.90;97.70;;;;;;5008504;28;20441;-60
2021/03/01 06:01:47;;;;;;;21.20;10.90;;;-1.90;97.70;;;;;;5029389;28;20457;-58
2021/03/01 06:04:13;;;;;;;19.50;9.53;;;-1.90;97.50;;;;;;5016741;28;20433;-60
2021/03/01 06:06:39;;;;;;;20.13;9.50;;;-1.90;97.30;;;;;;5027812;28;20423;-60
2021/03/01 06:09:05;;;;;;;18.33;9.20;;;-1.90;97.10;;;;;;5019719;28;20252;-60
2021/03/01 06:11:31;;;;;;;24.73;10.03;;;-1.90;96.90;;;;;;5027005;28;21921;-60
2021/03/01 06:14:01;;;;;;;17.47;9.60;;;-2.00;96.80;;;;;;5011040;28;20475;-59
2021/03/01 06:16:28;;;;;;;17.27;9.13;;;-2.00;96.60;;;;;;5006722;28;20224;-60
2021/03/01 06:18:54;;;;;;;22.23;10.60;;;-2.00;96.70;;;;;;5032057;28;20444;-60
2021/03/01 06:21:22;;;;;;;26.13;10.77;;;-2.00;96.90;;;;;;5032253;28;20424;-60
2021/03/01 06:23:48;;;;;;;24.80;10.30;;;-2.00;96.80;;;;;;5014437;28;20185;-60
2021/03/01 06:26:32;;;;;;;33.07;10.23;;;-2.00;96.90;;;;;;5041094;28;20452;-61
2021/03/01 06:29:03;;;;;;;28.07;10.97;;;-2.00;97.00;;;;;;5054408;28;20430;-62
2021/03/01 06:31:33;;;;;;;21.13;10.40;;;-2.00;97.00;;;;;;5039419;28;20442;-60
2021/03/01 06:34:27;;;;;;;22.00;10.57;;;-2.00;97.30;;;;;;5040564;28;20442;-61
2021/03/01 06:37:12;;;;;;;17.63;9.77;;;-2.00;97.20;;;;;;5049752;28;20470;-63
2021/03/01 06:39:49;;;;;;;22.27;10.40;;;-2.00;96.90;;;;;;5051965;28;20442;-61
2021/03/01 06:42:18;;;;;;;20.83;9.57;;;-2.00;96.80;;;;;;5061603;28;20855;-60
2021/03/01 06:45:00;;;;;;;25.20;11.77;;;-2.00;96.70;;;;;;5033251;28;20954;-59
2021/03/01 06:47:45;;;;;;;39.73;12.43;;;-2.00;96.70;;;;;;5028645;28;20521;-61
2021/03/01 06:50:45;;;;;;;26.60;11.73;;;-2.00;96.60;;;;;;5033285;28;20435;-60
2021/03/01 06:53:11;;;;;;;21.53;10.50;;;-2.00;96.60;;;;;;4994222;28;20494;-61
2021/03/01 06:55:37;;;;;;;21.90;10.77;;;-1.90;96.70;;;;;;5013562;28;20463;-61
2021/03/01 06:58:36;;;;;;;30.73;11.57;;;-1.90;96.70;;;;;;5013979;28;20567;-61
2021/03/01 07:01:15;;;;;;;20.50;10.97;;;-1.80;96.90;;;;;;5026164;28;20522;-60
2021/03/01 07:03:42;;;;;;;31.80;11.63;;;-1.80;97.10;;;;;;5016755;28;20853;-61
2021/03/01 07:06:09;;;;;;;21.73;10.23;;;-1.70;97.20;;;;;;5025091;28;20438;-60
2021/03/01 07:08:35;;;;;;;25.30;11.57;;;-1.60;97.20;;;;;;5020490;28;20912;-60
2021/03/01 07:11:02;;;;;;;18.43;9.80;;;-1.50;97.50;;;;;;5031840;28;20565;-60
2021/03/01 07:13:29;;;;;;;18.70;9.60;;;-1.40;97.30;;;;;;5033099;28;20199;-60
2021/03/01 07:15:56;;;;;;;19.73;9.53;;;-1.30;97.40;;;;;;5036893;28;20532;-61
2021/03/01 07:18:22;;;;;;;18.30;9.43;;;-1.30;97.40;;;;;;5045024;28;20762;-62
2021/03/01 07:20:49;;;;;;;25.70;10.33;;;-1.20;97.40;;;;;;5030198;28;20442;-63
2021/03/01 07:23:18;;;;;;;25.70;10.60;;;-1.10;97.40;;;;;;5029612;28;20505;-62
2021/03/01 07:25:45;;;;;;;17.10;8.70;;;-1.00;97.40;;;;;;5017501;28;20407;-61
2021/03/01 07:28:17;;;;;;;20.83;10.53;;;-0.90;97.50;;;;;;5014549;28;20492;-60
2021/03/01 07:30:45;;;;;;;23.40;8.50;;;-0.80;97.20;;;;;;5032191;28;20426;-61
2021/03/01 07:33:14;;;;;;;26.30;9.27;;;-0.60;97.20;;;;;;5029643;28;20416;-61
2021/03/01 07:35:44;;;;;;;15.13;8.50;;;-0.60;96.90;;;;;;5044383;28;20449;-61
2021/03/01 07:38:10;;;;;;;19.20;9.17;;;-0.50;96.90;;;;;;5036961;28;20417;-62
2021/03/01 07:40:37;;;;;;;21.93;10.70;;;-0.40;96.90;;;;;;5011889;28;20430;-61
2021/03/01 07:43:03;;;;;;;21.30;10.50;;;-0.30;97.10;;;;;;5030265;28;21271;-60
2021/03/01 07:45:30;;;;;;;20.50;10.30;;;-0.20;97.00;;;;;;5015415;28;20485;-61
2021/03/01 07:48:00;;;;;;;21.77;11.03;;;-0.10;97.00;;;;;;5031998;28;20416;-61
2021/03/01 07:50:38;;;;;;;20.80;10.30;;;-0.10;97.10;;;;;;5026326;28;20431;-61
2021/03/01 07:53:04;;;;;;;19.70;9.50;;;0.00;97.20;;;;;;5007324;28;20486;-62
2021/03/01 07:55:30;;;;;;;18.60;8.80;;;0.10;97.20;;;;;;5025836;28;20490;-61
2021/03/01 07:58:05;;;;;;;19.47;9.10;;;0.20;97.00;;;;;;5026848;28;20475;-61
2021/03/01 08:00:35;;;;;;;18.33;9.20;;;0.30;97.00;;;;;;5031247;28;20172;-60
2021/03/01 08:03:21;;;;;;;16.50;9.63;;;0.30;96.80;;;;;;5030153;28;20570;-60
2021/03/01 08:05:53;;;;;;;19.43;9.40;;;0.40;96.90;;;;;;5028264;28;20453;-60
2021/03/01 08:08:43;;;;;;;18.80;9.07;;;0.50;96.80;;;;;;5017123;28;20766;-61
2021/03/01 08:11:10;;;;;;;18.97;8.80;;;0.60;96.80;;;;;;5017687;28;20475;-62
2021/03/01 08:13:36;;;;;;;17.60;9.20;;;0.70;96.90;;;;;;5031293;28;20414;-60
2021/03/01 08:16:19;;;;;;;16.97;7.97;;;0.90;97.10;;;;;;5031484;28;20829;-60
2021/03/01 08:18:55;;;;;;;17.70;9.00;;;1.00;97.30;;;;;;5032929;28;20431;-61
2021/03/01 08:21:21;;;;;;;21.50;9.13;;;1.10;97.20;;;;;;5039356;28;20440;-60
2021/03/01 08:23:48;;;;;;;24.10;11.20;;;1.20;97.10;;;;;;5027491;28;20454;-61
2021/03/01 08:26:31;;;;;;;22.27;10.63;;;1.40;97.00;;;;;;5025015;28;20428;-61
2021/03/01 08:29:14;;;;;;;19.90;11.10;;;1.50;97.00;;;;;;5018424;28;20463;-61
2021/03/01 08:31:41;;;;;;;16.90;10.20;;;1.60;97.20;;;;;;5027537;28;20473;-61
2021/03/01 08:34:26;;;;;;;21.47;11.17;;;1.80;97.00;;;;;;5030975;28;20442;-60
2021/03/01 08:36:53;;;;;;;21.90;10.93;;;1.90;96.70;;;;;;5028409;28;20441;-61
2021/03/01 08:39:50;;;;;;;22.13;11.60;;;2.10;96.50;;;;;;5010510;28;20432;-61
2021/03/01 08:42:42;;;;;;;22.97;12.13;;;2.20;96.40;;;;;;5029684;28;20874;-61
2021/03/01 08:45:10;;;;;;;18.87;10.63;;;2.40;96.40;;;;;;5036708;28;20814;-60
2021/03/01 08:47:48;;;;;;;25.33;11.40;;;2.60;95.90;;;;;;5028850;28;20484;-61
2021/03/01 08:50:14;;;;;;;17.70;10.57;;;2.80;95.50;;;;;;5029748;28;20463;-61
2021/03/01 08:52:47;;;;;;;22.70;11.27;;;3.00;95.00;;;;;;5009778;28;20498;-60
2021/03/01 08:55:14;;;;;;;21.63;11.20;;;3.10;94.90;;;;;;5027438;28;20434;-64
2021/03/01 08:58:03;;;;;;;21.53;10.60;;;3.30;94.70;;;;;;5010915;28;20446;-61
2021/03/01 09:00:33;;;;;;;21.73;11.67;;;3.50;94.30;;;;;;5024306;28;20455;-61
2021/03/01 09:03:10;;;;;;;18.50;10.70;;;3.60;93.40;;;;;;5022344;28;20496;-60
2021/03/01 09:05:36;;;;;;;18.53;10.00;;;3.80;93.30;;;;;;5030627;28;20446;-61
2021/03/01 09:08:02;;;;;;;21.60;11.17;;;3.90;92.90;;;;;;5034306;28;20442;-60
2021/03/01 09:10:36;;;;;;;19.27;10.77;;;4.00;92.40;;;;;;4997995;28;20832;-61
2021/03/01 09:13:03;;;;;;;19.63;10.83;;;4.10;92.10;;;;;;5046196;28;20214;-60
2021/03/01 09:15:28;;;;;;;16.80;9.70;;;4.30;92.20;;;;;;5010816;28;20440;-62
2021/03/01 09:17:54;;;;;;;18.13;10.00;;;4.40;92.30;;;;;;5031704;28;20430;-62
2021/03/01 09:20:20;;;;;;;16.87;10.33;;;4.60;92.30;;;;;;5016901;28;20222;-62
2021/03/01 09:22:47;;;;;;;22.63;11.00;;;4.70;91.60;;;;;;5029949;28;20215;-60
2021/03/01 09:25:34;;;;;;;18.57;10.40;;;4.80;90.90;;;;;;5032573;28;20448;-61
2021/03/01 09:27:59;;;;;;;21.03;11.27;;;4.90;90.30;;;;;;5023174;28;20612;-60
2021/03/01 09:30:27;;;;;;;29.93;9.80;;;5.10;90.30;;;;;;5020863;28;20458;-61
2021/03/01 09:32:58;;;;;;;18.73;10.70;;;5.20;90.20;;;;;;5032337;28;20289;-61
2021/03/01 09:35:25;;;;;;;20.97;10.60;;;5.40;90.20;;;;;;5037903;28;20424;-61
2021/03/01 09:37:51;;;;;;;18.80;9.60;;;5.50;88.10;;;;;;5044967;28;20442;-61
2021/03/01 09:40:19;;;;;;;21.53;11.23;;;5.60;90.10;;;;;;5030846;28;20433;-60
2021/03/01 09:42:48;;;;;;;20.07;10.33;;;5.80;88.20;;;;;;5026774;28;20454;-60
2021/03/01 09:45:15;;;;;;;16.50;10.43;;;5.90;86.00;;;;;;5025170;28;20442;-61
2021/03/01 09:47:41;;;;;;;25.07;12.00;;;6.00;86.40;;;;;;5033747;28;20984;-61
2021/03/01 09:50:09;;;;;;;19.03;10.53;;;6.20;84.80;;;;;;5032088;28;20437;-60
2021/03/01 09:52:35;;;;;;;17.77;9.70;;;6.30;83.70;;;;;;5029428;28;20469;-60
2021/03/01 09:55:02;;;;;;;22.23;10.93;;;6.50;81.40;;;;;;5038643;28;20544;-61
2021/03/01 09:57:30;;;;;;;19.63;10.77;;;6.60;79.50;;;;;;5018175;28;20439;-60
2021/03/01 09:59:56;;;;;;;18.47;10.50;;;6.70;80.00;;;;;;5004437;28;21053;-61
2021/03/01 10:02:24;;;;;;;19.87;10.73;;;6.80;77.70;;;;;;5024521;28;20463;-60
2021/03/01 10:04:52;;;;;;;20.97;10.83;;;7.00;76.70;;;;;;5029885;28;20179;-62
2021/03/01 10:07:25;;;;;;;19.23;9.93;;;7.10;77.40;;;;;;5011655;28;20480;-62
2021/03/01 10:09:56;;;;;;;22.67;10.53;;;7.30;73.90;;;;;;5024234;28;20430;-61
2021/03/01 10:12:22;;;;;;;17.87;10.50;;;7.40;71.40;;;;;;5024382;28;20492;-59
2021/03/01 10:14:59;;;;;;;16.47;9.83;;;7.50;72.20;;;;;;5023463;28;20993;-59
2021/03/01 10:17:28;;;;;;;16.00;9.63;;;7.70;69.00;;;;;;5014991;28;20430;-60
2021/03/01 10:20:09;;;;;;;19.20;10.57;;;7.80;68.90;;;;;;5028933;28;20924;-60
2021/03/01 10:22:57;;;;;;;18.17;9.83;;;7.90;67.80;;;;;;5030099;28;20970;-60
2021/03/01 10:25:40;;;;;;;17.30;10.20;;;8.10;64.60;;;;;;5019752;28;20445;-62
2021/03/01 10:28:26;;;;;;;16.60;10.07;;;8.20;64.50;;;;;;5030784;28;20446;-59
2021/03/01 10:31:03;;;;;;;21.67;10.33;;;8.40;63.60;;;;;;5019950;28;20442;-60
2021/03/01 10:33:29;;;;;;;15.43;9.00;;;8.50;61.10;;;;;;5033383;28;20853;-61
2021/03/01 10:36:09;;;;;;;16.97;10.30;;;8.60;60.50;;;;;;5010077;28;20442;-60
2021/03/01 10:39:02;;;;;;;20.80;10.17;;;8.70;60.80;;;;;;5032298;28;20595;-60
2021/03/01 10:41:30;;;;;;;19.20;10.87;;;8.80;60.30;;;;;;5026776;28;20504;-61
2021/03/01 10:43:57;;;;;;;15.87;10.10;;;8.90;58.20;;;;;;5024400;28;20502;-61
2021/03/01 10:46:35;;;;;;;19.23;8.93;;;9.00;58.80;;;;;;5021927;28;20439;-60
2021/03/01 10:49:03;;;;;;;17.30;8.90;;;9.10;58.30;;;;;;5021176;28;20591;-61
2021/03/01 10:51:28;;;;;;;16.50;9.53;;;9.30;58.30;;;;;;5026562;28;20466;-60
2021/03/01 10:53:54;;;;;;;14.93;8.73;;;9.50;56.10;;;;;;5026525;28;20445;-61
2021/03/01 10:56:20;;;;;;;13.50;7.80;;;9.60;55.50;;;;;;5025581;28;20543;-62
2021/03/01 10:58:46;;;;;;;15.53;9.80;;;9.80;54.40;;;;;;5026513;28;20267;-60
2021/03/01 11:01:12;;;;;;;15.10;8.50;;;10.00;53.40;;;;;;5019279;28;20223;-61
2021/03/01 11:03:38;;;;;;;14.97;7.60;;;10.10;51.90;;;;;;5007127;28;20486;-62
2021/03/01 11:06:04;;;;;;;13.93;8.73;;;10.20;53.00;;;;;;5011593;28;20624;-60
2021/03/01 11:08:30;;;;;;;16.33;7.87;;;10.40;52.20;;;;;;5028126;28;20190;-61
2021/03/01 11:10:56;;;;;;;14.60;8.50;;;10.60;51.30;;;;;;5030860;28;20639;-61
2021/03/01 11:13:21;;;;;;;16.93;9.10;;;10.70;50.70;;;;;;5032518;28;20455;-61
2021/03/01 11:15:47;;;;;;;14.37;9.30;;;10.80;49.40;;;;;;5011758;28;20183;-61
2021/03/01 11:18:13;;;;;;;16.20;9.47;;;11.00;49.20;;;;;;5036226;28;21412;-63
2021/03/01 11:20:38;;;;;;;11.80;7.60;;;11.10;48.80;;;;;;5042183;28;20188;-62
2021/03/01 11:23:06;;;;;;;14.23;8.43;;;11.30;48.50;;;;;;5010748;28;20215;-62
2021/03/01 11:25:34;;;;;;;12.67;7.90;;;11.60;47.60;;;;;;5034386;28;20184;-61
2021/03/01 11:28:00;;;;;;;11.93;7.37;;;11.90;46.60;;;;;;5022884;28;20434;-61
2021/03/01 11:30:27;;;;;;;15.83;8.10;;;12.30;45.80;;;;;;5032328;28;20801;-61
2021/03/01 11:32:53;;;;;;;10.03;7.30;;;12.70;44.80;;;;;;5022523;28;20470;-61
2021/03/01 11:35:19;;;;;;;15.73;7.90;;;13.30;43.40;;;;;;5021128;28;20496;-63
2021/03/01 11:37:44;;;;;;;12.70;7.20;;;13.70;43.10;;;;;;5021512;28;20685;-62
2021/03/01 11:40:10;;;;;;;12.90;7.30;;;14.10;42.40;;;;;;5009019;28;20494;-62
2021/03/01 11:42:36;;;;;;;17.50;7.73;;;14.60;41.40;;;;;;5022140;28;20733;-62
2021/03/01 11:45:02;;;;;;;11.97;7.50;;;15.10;40.30;;;;;;5024716;28;20472;-62
2021/03/01 11:47:28;;;;;;;11.07;7.37;;;15.60;38.50;;;;;;5025518;28;22215;-62
2021/03/01 11:49:54;;;;;;;10.97;7.43;;;16.00;37.40;;;;;;5007480;28;20454;-62
2021/03/01 11:52:19;;;;;;;12.47;7.87;;;16.40;37.10;;;;;;5023946;28;20214;-61
2021/03/01 11:54:45;;;;;;;9.60;6.80;;;16.70;36.60;;;;;;4986134;28;20303;-63
2021/03/01 11:57:11;;;;;;;8.60;6.60;;;16.90;36.20;;;;;;5026428;28;20219;-62
2021/03/01 11:59:40;;;;;;;12.20;6.87;;;17.30;36.90;;;;;;5016993;28;20677;-62
2021/03/01 12:02:06;;;;;;;11.50;6.93;;;17.70;35.90;;;;;;5022978;28;20455;-65
2021/03/01 12:04:31;;;;;;;10.20;6.53;;;18.30;36.10;;;;;;5023594;28;20453;-62
2021/03/01 12:06:57;;;;;;;7.93;5.50;;;18.80;34.10;;;;;;5011538;28;20919;-61
2021/03/01 12:09:23;;;;;;;7.97;5.47;;;19.20;32.80;;;;;;5013177;28;20207;-61
2021/03/01 12:11:48;;;;;;;6.00;5.40;;;19.20;31.40;;;;;;5028783;28;20261;-61
2021/03/01 12:14:14;;;;;;;9.10;6.03;;;19.40;30.50;;;;;;5025249;28;20194;-62
2021/03/01 12:16:40;;;;;;;6.73;5.67;;;19.60;30.10;;;;;;5030001;28;20214;-63
2021/03/01 12:19:05;;;;;;;6.07;4.93;;;20.00;30.00;;;;;;5020339;28;20646;-60
2021/03/01 12:21:31;;;;;;;8.07;5.50;;;20.30;29.40;;;;;;5017603;28;20207;-61
2021/03/01 12:23:56;;;;;;;8.20;5.83;;;20.40;29.00;;;;;;5025172;28;20205;-61
2021/03/01 12:26:22;;;;;;;6.53;5.60;;;20.50;29.10;;;;;;5017747;28;20235;-62
2021/03/01 12:28:48;;;;;;;7.67;5.90;;;20.50;29.20;;;;;;5022218;28;20888;-63
2021/03/01 12:31:14;;;;;;;10.37;6.30;;;20.30;29.40;;;;;;4993299;28;20549;-66
2021/03/01 12:33:40;;;;;;;11.20;6.87;;;20.30;28.80;;;;;;5034018;28;20218;-64
2021/03/01 12:36:06;;;;;;;10.03;5.63;;;20.10;29.10;;;;;;5024802;28;20183;-65
2021/03/01 12:38:31;;;;;;;10.50;6.00;;;20.00;29.60;;;;;;5018595;28;20173;-62
2021/03/01 12:40:57;;;;;;;10.63;6.70;;;19.90;29.70;;;;;;5032582;28;20958;-62
2021/03/01 12:43:23;;;;;;;9.00;6.20;;;19.90;29.50;;;;;;5027153;28;20192;-62
2021/03/01 12:45:48;;;;;;;7.80;5.77;;;19.80;29.70;;;;;;5024984;28;20253;-63
2021/03/01 12:48:14;;;;;;;9.13;6.50;;;19.60;30.20;;;;;;5026175;28;20183;-64